DLH9TK EDDS-EDDF
Flight info
| Callsign | DLH9TK |
|---|---|
| Flight time | 0h 29m |
| Altitude | 22000 |
| Route | ETASA2H ETASA T163 SPESA SPESA5C |
| Aircraft | A321/M-SDE2E3FGIJ1LORWXYZ/HB1 |
Departure
| Time | 2026-04-15 10:52 |
|---|---|
| Airport | Stuttgart Airport (EDDS) |
Arrival
| Time | 2026-04-15 11:21 |
|---|---|
| Airport | Frankfurt Main Airport (EDDF) |
| Time | Latitude | Longitude | Altitude | Speed | Heading |
|---|---|---|---|---|---|
| 2026-04-15 10:21 | 48.68893 | 9.19430 | 1315 ft | 0 kts | 344° |
| 2026-04-15 10:42 | 48.68873 | 9.19438 | 1315 ft | 4 kts | 344° |
| 2026-04-15 10:42 | 48.68848 | 9.19449 | 1313 ft | 4 kts | 348° |
| 2026-04-15 10:43 | 48.68825 | 9.19448 | 1313 ft | 4 kts | 43° |
| 2026-04-15 10:43 | 48.68813 | 9.19416 | 1313 ft | 3 kts | 74° |
| 2026-04-15 10:43 | 48.68812 | 9.19412 | 1313 ft | 0 kts | 74° |
| 2026-04-15 10:47 | 48.68814 | 9.19419 | 1313 ft | 2 kts | 74° |
| 2026-04-15 10:47 | 48.68825 | 9.19482 | 1312 ft | 7 kts | 74° |
| 2026-04-15 10:47 | 48.68843 | 9.19578 | 1310 ft | 12 kts | 74° |
| 2026-04-15 10:47 | 48.68867 | 9.19703 | 1308 ft | 12 kts | 74° |
| 2026-04-15 10:48 | 48.68888 | 9.19822 | 1304 ft | 11 kts | 83° |
| 2026-04-15 10:48 | 48.68856 | 9.19888 | 1300 ft | 15 kts | 155° |
| 2026-04-15 10:48 | 48.68774 | 9.19945 | 1294 ft | 14 kts | 159° |
| 2026-04-15 10:48 | 48.68698 | 9.19980 | 1290 ft | 9 kts | 164° |
| 2026-04-15 10:49 | 48.68670 | 9.19992 | 1288 ft | 0 kts | 164° |
| 2026-04-15 10:51 | 48.68650 | 9.20001 | 1286 ft | 7 kts | 163° |
| 2026-04-15 10:51 | 48.68602 | 9.20067 | 1283 ft | 11 kts | 113° |
| 2026-04-15 10:51 | 48.68610 | 9.20205 | 1280 ft | 16 kts | 74° |
| 2026-04-15 10:52 | 48.68671 | 9.20527 | 1273 ft | 67 kts | 74° |
| 2026-04-15 10:52 | 48.68873 | 9.21600 | 1251 ft | 142 kts | 74° |
| 2026-04-15 10:52 | 48.69187 | 9.23241 | 1579 ft | 172 kts | 75° |
| 2026-04-15 10:52 | 48.69529 | 9.25003 | 2392 ft | 176 kts | 73° |
| 2026-04-15 10:53 | 48.69891 | 9.26821 | 2972 ft | 189 kts | 73° |
| 2026-04-15 10:53 | 48.70296 | 9.28818 | 3344 ft | 208 kts | 73° |
| 2026-04-15 10:53 | 48.70747 | 9.31042 | 3643 ft | 236 kts | 73° |
| 2026-04-15 10:53 | 48.71250 | 9.33529 | 4113 ft | 258 kts | 73° |
| 2026-04-15 10:54 | 48.71787 | 9.36170 | 4942 ft | 264 kts | 74° |
| 2026-04-15 10:54 | 48.72334 | 9.38840 | 5800 ft | 267 kts | 74° |
| 2026-04-15 10:54 | 48.73121 | 9.41375 | 6724 ft | 271 kts | 51° |
| 2026-04-15 10:54 | 48.74670 | 9.43013 | 7497 ft | 278 kts | 23° |
| 2026-04-15 10:55 | 48.76554 | 9.43744 | 8300 ft | 283 kts | 3° |
| 2026-04-15 10:55 | 48.78507 | 9.43284 | 9082 ft | 288 kts | 342° |
| 2026-04-15 10:55 | 48.80359 | 9.42085 | 9921 ft | 291 kts | 332° |
| 2026-04-15 10:55 | 48.82151 | 9.40611 | 10615 ft | 298 kts | 332° |
| 2026-04-15 10:56 | 48.84084 | 9.39156 | 10841 ft | 321 kts | 334° |
| 2026-04-15 10:56 | 48.86118 | 9.37700 | 11292 ft | 332 kts | 335° |
| 2026-04-15 10:56 | 48.88228 | 9.36203 | 11972 ft | 337 kts | 335° |
| 2026-04-15 10:56 | 48.90358 | 9.34681 | 12678 ft | 340 kts | 335° |
| 2026-04-15 10:57 | 48.92504 | 9.33124 | 13393 ft | 343 kts | 334° |
| 2026-04-15 10:57 | 48.96822 | 9.29878 | 14724 ft | 350 kts | 333° |
| 2026-04-15 10:57 | 48.99007 | 9.28205 | 15351 ft | 353 kts | 334° |
| 2026-04-15 10:58 | 49.01206 | 9.26520 | 15984 ft | 356 kts | 333° |
| 2026-04-15 10:58 | 49.03425 | 9.24818 | 16624 ft | 359 kts | 333° |
| 2026-04-15 10:58 | 49.05666 | 9.23099 | 17237 ft | 362 kts | 333° |
| 2026-04-15 10:58 | 49.07931 | 9.21369 | 17830 ft | 366 kts | 333° |
| 2026-04-15 10:59 | 49.10224 | 9.19619 | 18161 ft | 369 kts | 333° |
| 2026-04-15 10:59 | 49.12525 | 9.17862 | 18229 ft | 370 kts | 333° |
| 2026-04-15 10:59 | 49.14827 | 9.16101 | 18229 ft | 370 kts | 333° |
| 2026-04-15 10:59 | 49.17160 | 9.14473 | 18229 ft | 369 kts | 340° |
| 2026-04-15 11:00 | 49.19649 | 9.13505 | 18229 ft | 370 kts | 352° |
| 2026-04-15 11:00 | 49.22219 | 9.13287 | 18233 ft | 370 kts | 3° |
| 2026-04-15 11:00 | 49.24790 | 9.13637 | 18235 ft | 371 kts | 5° |
| 2026-04-15 11:00 | 49.27355 | 9.14014 | 18237 ft | 371 kts | 5° |
| 2026-04-15 11:01 | 49.29920 | 9.14382 | 18236 ft | 371 kts | 5° |
| 2026-04-15 11:01 | 49.32494 | 9.14746 | 18234 ft | 371 kts | 5° |
| 2026-04-15 11:01 | 49.35061 | 9.15108 | 18234 ft | 371 kts | 5° |
| 2026-04-15 11:01 | 49.37592 | 9.15466 | 18230 ft | 371 kts | 5° |
| 2026-04-15 11:02 | 49.40163 | 9.15835 | 18236 ft | 371 kts | 5° |
| 2026-04-15 11:02 | 49.42733 | 9.16204 | 18233 ft | 371 kts | 5° |
| 2026-04-15 11:02 | 49.45309 | 9.16571 | 18234 ft | 371 kts | 5° |
| 2026-04-15 11:02 | 49.47882 | 9.16940 | 18233 ft | 372 kts | 5° |
| 2026-04-15 11:03 | 49.50382 | 9.17297 | 18215 ft | 361 kts | 5° |
| 2026-04-15 11:03 | 49.52879 | 9.17654 | 18070 ft | 346 kts | 5° |
| 2026-04-15 11:03 | 49.55241 | 9.17997 | 17803 ft | 337 kts | 5° |
| 2026-04-15 11:03 | 49.57566 | 9.18335 | 17538 ft | 334 kts | 5° |
| 2026-04-15 11:04 | 49.59872 | 9.18670 | 17281 ft | 332 kts | 5° |
| 2026-04-15 11:04 | 49.62172 | 9.18755 | 17020 ft | 330 kts | 351° |
| 2026-04-15 11:04 | 49.64349 | 9.17753 | 16757 ft | 326 kts | 331° |
| 2026-04-15 11:04 | 49.66179 | 9.15712 | 16510 ft | 324 kts | 318° |
| 2026-04-15 11:05 | 49.67870 | 9.13416 | 16266 ft | 324 kts | 317° |
| 2026-04-15 11:05 | 49.69551 | 9.11120 | 16003 ft | 322 kts | 317° |
| 2026-04-15 11:05 | 49.71224 | 9.08832 | 15754 ft | 321 kts | 318° |
| 2026-04-15 11:05 | 49.72896 | 9.06546 | 15507 ft | 320 kts | 317° |
| 2026-04-15 11:06 | 49.74450 | 9.04120 | 15263 ft | 317 kts | 304° |
| 2026-04-15 11:06 | 49.75414 | 9.01102 | 15027 ft | 313 kts | 284° |
| 2026-04-15 11:06 | 49.75779 | 8.97789 | 14787 ft | 312 kts | 277° |
| 2026-04-15 11:06 | 49.76084 | 8.94473 | 14548 ft | 311 kts | 277° |
| 2026-04-15 11:07 | 49.76392 | 8.91168 | 14311 ft | 310 kts | 277° |
| 2026-04-15 11:07 | 49.76698 | 8.87875 | 14074 ft | 309 kts | 277° |
| 2026-04-15 11:07 | 49.77010 | 8.84522 | 13818 ft | 325 kts | 278° |
| 2026-04-15 11:07 | 49.77335 | 8.81009 | 13457 ft | 333 kts | 277° |
| 2026-04-15 11:08 | 49.77660 | 8.77476 | 12924 ft | 331 kts | 277° |
| 2026-04-15 11:08 | 49.77981 | 8.73962 | 12411 ft | 329 kts | 277° |
| 2026-04-15 11:08 | 49.78300 | 8.70475 | 11908 ft | 327 kts | 277° |
| 2026-04-15 11:08 | 49.78616 | 8.67000 | 11409 ft | 325 kts | 277° |
| 2026-04-15 11:09 | 49.78929 | 8.63549 | 10923 ft | 323 kts | 277° |
| 2026-04-15 11:09 | 49.79239 | 8.60117 | 10472 ft | 319 kts | 277° |
| 2026-04-15 11:09 | 49.79537 | 8.56803 | 10339 ft | 304 kts | 277° |
| 2026-04-15 11:09 | 49.79818 | 8.53671 | 10212 ft | 291 kts | 277° |
| 2026-04-15 11:10 | 49.80092 | 8.50602 | 9899 ft | 286 kts | 277° |
| 2026-04-15 11:10 | 49.80362 | 8.47572 | 9496 ft | 283 kts | 277° |
| 2026-04-15 11:10 | 49.80632 | 8.44556 | 9072 ft | 282 kts | 277° |
| 2026-04-15 11:10 | 49.80898 | 8.41555 | 8664 ft | 281 kts | 276° |
| 2026-04-15 11:11 | 49.81160 | 8.38581 | 8272 ft | 279 kts | 276° |
| 2026-04-15 11:11 | 49.81420 | 8.35604 | 7877 ft | 278 kts | 276° |
| 2026-04-15 11:11 | 49.81678 | 8.32644 | 7501 ft | 276 kts | 276° |
| 2026-04-15 11:11 | 49.81936 | 8.29701 | 7138 ft | 275 kts | 276° |
| 2026-04-15 11:12 | 49.82191 | 8.26772 | 6772 ft | 273 kts | 276° |
| 2026-04-15 11:12 | 49.82444 | 8.23860 | 6387 ft | 272 kts | 276° |
| 2026-04-15 11:12 | 49.82693 | 8.20959 | 5993 ft | 272 kts | 276° |
| 2026-04-15 11:12 | 49.82944 | 8.18059 | 5591 ft | 271 kts | 276° |
| 2026-04-15 11:13 | 49.83193 | 8.15198 | 5411 ft | 263 kts | 276° |
| 2026-04-15 11:13 | 49.83460 | 8.12450 | 5280 ft | 253 kts | 285° |
| 2026-04-15 11:13 | 49.84309 | 8.10147 | 5133 ft | 244 kts | 316° |
| 2026-04-15 11:13 | 49.85686 | 8.08676 | 4802 ft | 241 kts | 336° |
| 2026-04-15 11:14 | 49.87274 | 8.07938 | 4481 ft | 238 kts | 354° |
| 2026-04-15 11:14 | 49.88909 | 8.07977 | 4213 ft | 233 kts | 12° |
| 2026-04-15 11:14 | 49.90408 | 8.08739 | 4014 ft | 229 kts | 29° |
| 2026-04-15 11:14 | 49.91716 | 8.10176 | 3988 ft | 228 kts | 47° |
| 2026-04-15 11:15 | 49.92673 | 8.12067 | 3989 ft | 226 kts | 62° |
| 2026-04-15 11:15 | 49.93291 | 8.14312 | 3994 ft | 227 kts | 71° |
| 2026-04-15 11:15 | 49.93846 | 8.16590 | 3995 ft | 221 kts | 70° |
| 2026-04-15 11:15 | 49.94376 | 8.18753 | 4001 ft | 210 kts | 71° |
| 2026-04-15 11:16 | 49.94880 | 8.20824 | 3997 ft | 198 kts | 71° |
| 2026-04-15 11:16 | 49.95354 | 8.22769 | 4003 ft | 189 kts | 70° |
| 2026-04-15 11:16 | 49.95811 | 8.24651 | 3994 ft | 185 kts | 70° |
| 2026-04-15 11:16 | 49.96265 | 8.26522 | 3927 ft | 185 kts | 71° |
| 2026-04-15 11:17 | 49.96716 | 8.28382 | 3735 ft | 183 kts | 70° |
| 2026-04-15 11:17 | 49.97165 | 8.30235 | 3512 ft | 184 kts | 70° |
| 2026-04-15 11:17 | 49.97613 | 8.32084 | 3262 ft | 182 kts | 70° |
| 2026-04-15 11:17 | 49.98052 | 8.33898 | 3014 ft | 177 kts | 70° |
| 2026-04-15 11:18 | 49.98482 | 8.35673 | 2789 ft | 174 kts | 70° |
| 2026-04-15 11:18 | 49.98899 | 8.37400 | 2550 ft | 168 kts | 70° |
| 2026-04-15 11:18 | 49.99305 | 8.39082 | 2330 ft | 165 kts | 70° |
| 2026-04-15 11:18 | 49.99702 | 8.40728 | 2114 ft | 157 kts | 70° |
| 2026-04-15 11:19 | 50.00070 | 8.42255 | 1893 ft | 146 kts | 70° |
| 2026-04-15 11:19 | 50.00421 | 8.43712 | 1697 ft | 142 kts | 70° |
| 2026-04-15 11:19 | 50.00774 | 8.45181 | 1490 ft | 148 kts | 70° |
| 2026-04-15 11:19 | 50.01133 | 8.46675 | 1303 ft | 147 kts | 70° |
| 2026-04-15 11:20 | 50.01486 | 8.48163 | 1052 ft | 145 kts | 70° |
| 2026-04-15 11:20 | 50.01830 | 8.49623 | 890 ft | 144 kts | 69° |
| 2026-04-15 11:20 | 50.02185 | 8.51064 | 722 ft | 142 kts | 69° |
| 2026-04-15 11:20 | 50.02537 | 8.52504 | 518 ft | 142 kts | 70° |
| 2026-04-15 11:21 | 50.02878 | 8.53926 | 371 ft | 136 kts | 71° |
| 2026-04-15 11:21 | 50.03167 | 8.55145 | 358 ft | 98 kts | 70° |
| 2026-04-15 11:21 | 50.03343 | 8.55883 | 358 ft | 50 kts | 69° |
| 2026-04-15 11:21 | 50.03482 | 8.56288 | 358 ft | 33 kts | 45° |
| 2026-04-15 11:22 | 50.03628 | 8.56489 | 362 ft | 23 kts | 40° |
| 2026-04-15 11:22 | 50.03744 | 8.56641 | 362 ft | 22 kts | 43° |
| 2026-04-15 11:22 | 50.03818 | 8.56842 | 362 ft | 22 kts | 70° |
| 2026-04-15 11:22 | 50.03871 | 8.57065 | 363 ft | 22 kts | 70° |
| 2026-04-15 11:23 | 50.03925 | 8.57296 | 366 ft | 23 kts | 69° |
| 2026-04-15 11:23 | 50.03983 | 8.57527 | 362 ft | 23 kts | 69° |
| 2026-04-15 11:23 | 50.04039 | 8.57764 | 365 ft | 24 kts | 70° |
| 2026-04-15 11:23 | 50.04095 | 8.57994 | 365 ft | 22 kts | 70° |
| 2026-04-15 11:24 | 50.04141 | 8.58129 | 363 ft | 11 kts | 43° |
| 2026-04-15 11:24 | 50.04217 | 8.58192 | 362 ft | 13 kts | 24° |
| 2026-04-15 11:24 | 50.04287 | 8.58201 | 363 ft | 2 kts | 342° |
| 2026-04-15 11:24 | 50.04288 | 8.58201 | 363 ft | 0 kts | 342° |
| 2026-04-15 11:25 | 50.04301 | 8.58194 | 363 ft | 4 kts | 341° |
| 2026-04-15 11:25 | 50.04339 | 8.58173 | 363 ft | 7 kts | 340° |
| 2026-04-15 11:25 | 50.04393 | 8.58142 | 367 ft | 10 kts | 339° |
| 2026-04-15 11:26 | 50.04467 | 8.58100 | 364 ft | 13 kts | 339° |
| 2026-04-15 11:26 | 50.04535 | 8.58005 | 361 ft | 14 kts | 276° |
| 2026-04-15 11:26 | 50.04507 | 8.57862 | 363 ft | 15 kts | 250° |
| 2026-04-15 11:26 | 50.04468 | 8.57702 | 366 ft | 17 kts | 249° |
| 2026-04-15 11:27 | 50.04431 | 8.57549 | 364 ft | 15 kts | 249° |
| 2026-04-15 11:27 | 50.04392 | 8.57390 | 364 ft | 17 kts | 250° |
| 2026-04-15 11:27 | 50.04350 | 8.57211 | 363 ft | 18 kts | 249° |
| 2026-04-15 11:27 | 50.04303 | 8.57015 | 361 ft | 20 kts | 250° |
| 2026-04-15 11:28 | 50.04254 | 8.56809 | 366 ft | 21 kts | 249° |
| 2026-04-15 11:28 | 50.04205 | 8.56610 | 361 ft | 19 kts | 251° |
| 2026-04-15 11:28 | 50.04160 | 8.56417 | 363 ft | 13 kts | 249° |
| 2026-04-15 11:28 | 50.04164 | 8.56294 | 363 ft | 13 kts | 313° |
| 2026-04-15 11:29 | 50.04245 | 8.56236 | 363 ft | 12 kts | 341° |
| 2026-04-15 11:29 | 50.04289 | 8.56139 | 359 ft | 12 kts | 278° |
| 2026-04-15 11:29 | 50.04352 | 8.56049 | 362 ft | 14 kts | 338° |
| 2026-04-15 11:29 | 50.04438 | 8.55990 | 361 ft | 14 kts | 327° |
| 2026-04-15 11:30 | 50.04532 | 8.56003 | 363 ft | 15 kts | 32° |
| 2026-04-15 11:30 | 50.04580 | 8.56151 | 362 ft | 17 kts | 71° |
| 2026-04-15 11:30 | 50.04622 | 8.56326 | 363 ft | 15 kts | 70° |
| 2026-04-15 11:30 | 50.04654 | 8.56461 | 361 ft | 14 kts | 69° |
| 2026-04-15 11:31 | 50.04706 | 8.56556 | 362 ft | 8 kts | 36° |
| 2026-04-15 11:31 | 50.04752 | 8.56603 | 364 ft | 7 kts | 22° |
| 2026-04-15 11:31 | 50.04794 | 8.56593 | 362 ft | 2 kts | 339° |
| 2026-04-15 11:31 | 50.04810 | 8.56584 | 361 ft | 1 kts | 340° |
| 2026-04-15 11:32 | 50.04816 | 8.56581 | 360 ft | 0 kts | 339° |